createdAt,value
2017-09-24T00:00:33.792Z,12.00
2017-09-24T00:03:01.390Z,12.00
2017-09-24T00:05:28.970Z,12.00
2017-09-24T00:07:57.281Z,11.90
2017-09-24T00:10:24.882Z,11.90
2017-09-24T00:12:53.270Z,11.80
2017-09-24T00:15:21.598Z,11.70
2017-09-24T00:17:49.202Z,11.70
2017-09-24T00:20:17.567Z,11.60
2017-09-24T00:22:45.134Z,11.60
2017-09-24T00:25:12.716Z,11.50
2017-09-24T00:27:41.050Z,11.30
2017-09-24T00:30:08.627Z,11.40
2017-09-24T00:32:36.194Z,11.40
2017-09-24T00:35:03.809Z,11.30
2017-09-24T00:37:31.385Z,11.30
2017-09-24T00:39:58.953Z,11.30
2017-09-24T00:42:26.546Z,11.30
2017-09-24T00:44:54.123Z,11.30
2017-09-24T00:47:22.452Z,11.20
2017-09-24T00:49:50.030Z,11.20
2017-09-24T00:52:17.591Z,11.10
2017-09-24T00:54:45.180Z,11.10
2017-09-24T00:57:12.790Z,11.10
2017-09-24T00:59:40.371Z,11.20
2017-09-24T01:02:07.952Z,11.10
2017-09-24T01:04:36.349Z,11.20
2017-09-24T01:07:03.944Z,11.20
2017-09-24T01:09:32.746Z,11.20
2017-09-24T01:12:00.358Z,11.20
2017-09-24T01:14:28.716Z,11.10
2017-09-24T01:16:56.334Z,11.10
2017-09-24T01:19:24.053Z,11.00
2017-09-24T01:21:52.420Z,11.00
2017-09-24T01:24:19.997Z,11.00
2017-09-24T01:26:48.396Z,10.90
2017-09-24T01:29:15.996Z,10.90
2017-09-24T01:31:43.633Z,10.90
2017-09-24T01:34:11.218Z,10.90
2017-09-24T01:36:38.817Z,10.90
2017-09-24T01:39:07.208Z,10.90
2017-09-24T01:41:35.605Z,10.90
2017-09-24T01:44:03.158Z,10.90
2017-09-24T01:46:30.745Z,10.90
2017-09-24T01:48:58.314Z,10.90
2017-09-24T01:51:28.106Z,10.90
2017-09-24T01:53:55.703Z,10.90
2017-09-24T01:56:23.405Z,10.90
2017-09-24T01:58:51.792Z,10.80
2017-09-24T02:01:19.414Z,10.80
2017-09-24T02:03:47.011Z,10.80
2017-09-24T02:06:14.633Z,10.70
2017-09-24T02:08:42.232Z,10.70
2017-09-24T02:11:09.859Z,10.70
2017-09-24T02:13:37.485Z,10.70
2017-09-24T02:16:05.103Z,10.70
2017-09-24T02:18:33.465Z,10.70
2017-09-24T02:21:01.090Z,10.70
2017-09-24T02:23:28.685Z,10.60
2017-09-24T02:25:56.306Z,10.60
2017-09-24T02:28:23.913Z,10.70
2017-09-24T02:30:51.535Z,10.50
2017-09-24T02:33:19.109Z,10.50
2017-09-24T02:35:46.697Z,10.40
2017-09-24T02:38:15.076Z,10.30
2017-09-24T02:40:43.437Z,10.30
2017-09-24T02:43:11.022Z,10.30
2017-09-24T02:45:38.677Z,10.30
2017-09-24T02:48:07.043Z,10.30
2017-09-24T02:50:34.633Z,10.30
2017-09-24T02:53:02.288Z,10.20
2017-09-24T02:55:30.656Z,10.20
2017-09-24T02:57:58.278Z,10.20
2017-09-24T03:00:25.854Z,10.20
2017-09-24T03:02:53.462Z,10.20
2017-09-24T03:05:21.067Z,10.20
2017-09-24T03:07:48.695Z,10.20
2017-09-24T03:10:16.278Z,10.20
2017-09-24T03:12:43.866Z,10.20
2017-09-24T03:15:11.491Z,10.20
2017-09-24T03:17:39.387Z,10.20
2017-09-24T03:20:07.015Z,10.20
2017-09-24T03:22:34.603Z,10.10
2017-09-24T03:25:02.223Z,10.10
2017-09-24T03:27:29.855Z,10.10
2017-09-24T03:29:58.212Z,10.10
2017-09-24T03:32:25.768Z,10.10
2017-09-24T03:34:53.368Z,10.10
2017-09-24T03:37:21.717Z,10.00
2017-09-24T03:39:49.313Z,10.00
2017-09-24T03:42:17.667Z,9.90
2017-09-24T03:44:45.256Z,9.90
2017-09-24T03:47:12.842Z,9.90
2017-09-24T03:49:40.410Z,9.90
2017-09-24T03:52:08.014Z,9.90
2017-09-24T03:54:36.338Z,9.90
2017-09-24T03:57:03.940Z,9.90
2017-09-24T03:59:31.569Z,10.00
2017-09-24T04:01:59.193Z,10.00
2017-09-24T04:04:27.547Z,9.90
2017-09-24T04:06:55.126Z,9.90
2017-09-24T04:09:23.542Z,9.90
2017-09-24T04:11:51.130Z,9.90
2017-09-24T04:14:18.712Z,9.90
2017-09-24T04:16:46.265Z,9.90
2017-09-24T04:19:13.855Z,9.90
2017-09-24T04:21:41.450Z,9.90
2017-09-24T04:24:09.039Z,9.90
2017-09-24T04:26:36.598Z,9.80
2017-09-24T04:29:04.200Z,9.80
2017-09-24T04:31:31.798Z,9.80
2017-09-24T04:33:59.401Z,9.80
2017-09-24T04:36:27.778Z,9.60
2017-09-24T04:38:56.141Z,9.50
2017-09-24T04:41:23.786Z,9.50
2017-09-24T04:43:51.398Z,9.60
2017-09-24T04:46:18.942Z,9.60
2017-09-24T04:48:46.519Z,9.60
2017-09-24T04:51:14.116Z,9.60
2017-09-24T04:53:41.680Z,9.60
2017-09-24T04:56:09.321Z,9.60
2017-09-24T04:58:36.957Z,9.50
2017-09-24T05:01:04.548Z,9.50
2017-09-24T05:03:32.140Z,9.50
2017-09-24T05:05:59.783Z,9.50
2017-09-24T05:08:27.362Z,9.50
2017-09-24T05:10:54.943Z,9.40
2017-09-24T05:13:23.345Z,9.40
2017-09-24T05:15:50.922Z,9.40
2017-09-24T05:18:18.510Z,9.40
2017-09-24T05:20:46.069Z,9.40
2017-09-24T05:23:13.642Z,9.40
2017-09-24T05:25:41.201Z,9.40
2017-09-24T05:28:08.811Z,9.40
2017-09-24T05:30:36.414Z,9.40
2017-09-24T05:33:04.016Z,9.40
2017-09-24T05:35:32.350Z,9.30
2017-09-24T05:37:59.901Z,9.30
2017-09-24T05:40:27.482Z,9.30
2017-09-24T05:42:55.056Z,9.30
2017-09-24T05:45:23.398Z,9.40
2017-09-24T05:47:50.971Z,9.40
2017-09-24T05:50:18.531Z,9.40
2017-09-24T05:52:46.108Z,9.40
2017-09-24T05:55:13.700Z,9.50
2017-09-24T05:57:42.035Z,9.50
2017-09-24T06:00:09.600Z,9.50
2017-09-24T06:02:37.158Z,9.60
2017-09-24T06:05:04.712Z,9.60
2017-09-24T06:07:32.285Z,9.60
2017-09-24T06:09:59.854Z,9.70
2017-09-24T06:12:28.207Z,9.80
2017-09-24T06:14:55.764Z,9.70
2017-09-24T06:17:23.321Z,9.80
2017-09-24T06:19:50.929Z,9.90
2017-09-24T06:22:19.267Z,10.00
2017-09-24T06:24:46.869Z,10.00
2017-09-24T06:27:15.208Z,10.20
2017-09-24T06:29:42.802Z,10.10
2017-09-24T06:32:11.146Z,10.10
2017-09-24T06:34:38.719Z,10.10
2017-09-24T06:37:06.302Z,10.20
2017-09-24T06:39:34.637Z,10.40
2017-09-24T06:42:02.230Z,10.40
2017-09-24T06:44:30.556Z,10.60
2017-09-24T06:46:58.137Z,10.60
2017-09-24T06:49:25.710Z,10.70
2017-09-24T06:51:53.305Z,10.80
2017-09-24T06:54:21.628Z,10.90
2017-09-24T06:56:49.218Z,10.90
2017-09-24T06:59:16.831Z,11.00
2017-09-24T07:01:44.425Z,11.10
2017-09-24T07:04:12.020Z,11.20
2017-09-24T07:06:40.341Z,11.30
2017-09-24T07:09:07.913Z,11.30
2017-09-24T07:11:35.491Z,11.50
2017-09-24T07:14:03.077Z,11.60
2017-09-24T07:16:31.532Z,11.70
2017-09-24T07:18:59.096Z,11.70
2017-09-24T07:21:26.701Z,11.90
2017-09-24T07:23:54.281Z,12.00
2017-09-24T07:26:21.865Z,12.10
2017-09-24T07:28:49.425Z,12.20
2017-09-24T07:31:17.025Z,12.20
2017-09-24T07:33:45.375Z,12.40
2017-09-24T07:36:12.948Z,12.40
2017-09-24T07:38:40.532Z,12.40
2017-09-24T07:41:08.114Z,12.50
2017-09-24T07:43:35.817Z,12.40
2017-09-24T07:46:03.402Z,12.50
2017-09-24T07:48:31.742Z,12.70
2017-09-24T07:50:59.318Z,12.60
2017-09-24T07:53:26.880Z,12.80
2017-09-24T07:55:54.468Z,13.00
2017-09-24T07:58:22.859Z,13.10
2017-09-24T08:00:50.430Z,13.10
2017-09-24T08:03:18.001Z,13.30
2017-09-24T08:05:45.562Z,13.50
2017-09-24T08:08:13.134Z,13.60
2017-09-24T08:10:40.716Z,13.60
2017-09-24T08:13:08.283Z,13.80
2017-09-24T08:15:35.839Z,13.90
2017-09-24T08:18:03.422Z,14.10
2017-09-24T08:20:31.742Z,14.10
2017-09-24T08:22:59.317Z,14.10
2017-09-24T08:25:26.884Z,14.20
2017-09-24T08:27:54.480Z,14.10
2017-09-24T08:30:22.807Z,14.50
2017-09-24T08:32:50.394Z,14.40
2017-09-24T08:35:17.988Z,14.50
2017-09-24T08:37:45.554Z,14.30
2017-09-24T08:40:13.228Z,14.30
2017-09-24T08:42:40.861Z,14.50
2017-09-24T08:45:09.211Z,14.40
2017-09-24T08:47:36.794Z,14.40
2017-09-24T08:50:05.199Z,14.20
2017-09-24T08:52:32.798Z,14.10
2017-09-24T08:55:00.387Z,14.30
2017-09-24T08:57:27.988Z,14.70
2017-09-24T08:59:55.541Z,14.90
2017-09-24T09:02:23.116Z,14.90
2017-09-24T09:04:50.700Z,15.20
2017-09-24T09:07:18.271Z,15.20
2017-09-24T09:09:45.875Z,15.30
2017-09-24T09:12:14.231Z,15.30
2017-09-24T09:14:41.790Z,15.30
2017-09-24T09:17:09.382Z,15.50
2017-09-24T09:19:36.965Z,15.40
2017-09-24T09:22:04.570Z,15.40
2017-09-24T09:24:32.156Z,15.40
2017-09-24T09:26:59.738Z,15.60
2017-09-24T09:29:27.310Z,15.50
2017-09-24T09:31:54.869Z,15.50
2017-09-24T09:34:33.111Z,15.60
2017-09-24T09:37:00.688Z,15.80
2017-09-24T09:39:29.110Z,16.20
2017-09-24T09:41:56.697Z,16.20
2017-09-24T09:44:35.924Z,16.30
2017-09-24T09:47:15.211Z,16.50
2017-09-24T09:49:43.588Z,16.60
2017-09-24T09:52:11.933Z,16.70
2017-09-24T09:54:39.557Z,16.70
2017-09-24T09:57:07.147Z,17.00
2017-09-24T09:59:34.719Z,17.10
2017-09-24T10:02:02.298Z,17.50
2017-09-24T10:04:30.645Z,17.50
2017-09-24T10:07:09.826Z,17.50
2017-09-24T10:09:49.157Z,17.50
2017-09-24T10:12:16.734Z,17.50
2017-09-24T10:14:44.350Z,17.30
2017-09-24T10:17:11.933Z,17.30
2017-09-24T10:19:40.273Z,17.90
2017-09-24T10:22:07.873Z,17.90
2017-09-24T10:24:37.012Z,18.60
2017-09-24T10:27:04.656Z,18.60
2017-09-24T10:29:32.234Z,19.00
2017-09-24T10:32:01.671Z,18.80
2017-09-24T10:34:29.323Z,19.00
2017-09-24T10:36:56.927Z,19.20
2017-09-24T10:39:24.494Z,19.40
2017-09-24T10:41:52.065Z,19.60
2017-09-24T10:44:19.621Z,19.80
2017-09-24T10:46:47.194Z,19.60
2017-09-24T10:49:14.859Z,19.40
2017-09-24T10:51:42.460Z,19.70
2017-09-24T10:54:10.040Z,19.70
2017-09-24T10:56:38.395Z,18.30
2017-09-24T10:59:05.987Z,18.30
2017-09-24T11:01:34.326Z,18.30
2017-09-24T11:04:01.895Z,18.30
2017-09-24T11:06:29.480Z,18.60
2017-09-24T11:08:57.857Z,18.50
2017-09-24T11:11:25.443Z,18.50
2017-09-24T11:13:53.021Z,18.60
2017-09-24T11:16:20.611Z,18.80
2017-09-24T11:18:48.176Z,18.90
2017-09-24T11:21:16.574Z,19.60
2017-09-24T11:23:44.912Z,19.30
2017-09-24T11:26:12.529Z,19.30
2017-09-24T11:28:40.103Z,19.80
2017-09-24T11:31:08.501Z,20.50
2017-09-24T11:33:36.136Z,20.50
2017-09-24T11:36:03.748Z,20.70
2017-09-24T11:38:31.350Z,20.30
2017-09-24T11:40:58.966Z,20.50
2017-09-24T11:43:26.547Z,21.20
2017-09-24T11:45:54.093Z,21.20
2017-09-24T11:48:21.664Z,21.20
2017-09-24T11:50:50.019Z,22.00
2017-09-24T11:53:17.707Z,22.00
2017-09-24T11:55:45.276Z,22.10
2017-09-24T11:58:13.645Z,22.20
2017-09-24T12:00:41.235Z,22.20
2017-09-24T12:03:08.817Z,22.70
2017-09-24T12:05:36.390Z,22.60
2017-09-24T12:08:03.959Z,23.20
2017-09-24T12:10:31.537Z,23.00
2017-09-24T12:12:59.138Z,23.30
2017-09-24T12:15:26.768Z,23.00
2017-09-24T12:17:54.367Z,23.70
2017-09-24T12:20:21.953Z,23.50
2017-09-24T12:22:49.587Z,23.90
2017-09-24T12:25:17.166Z,24.00
2017-09-24T12:27:44.767Z,23.50
2017-09-24T12:30:12.359Z,23.80
2017-09-24T12:32:40.036Z,23.90
2017-09-24T12:35:07.940Z,23.70
2017-09-24T12:37:35.526Z,24.10
2017-09-24T12:40:03.100Z,23.90
2017-09-24T12:42:30.681Z,24.30
2017-09-24T12:44:58.318Z,24.10
2017-09-24T12:47:26.656Z,24.40
2017-09-24T12:49:54.221Z,24.40
2017-09-24T12:52:21.817Z,24.50
2017-09-24T12:54:51.390Z,24.90
2017-09-24T12:57:18.993Z,24.90
2017-09-24T12:59:47.337Z,24.90
2017-09-24T13:02:14.933Z,24.90
2017-09-24T13:04:42.520Z,25.30
2017-09-24T13:07:10.128Z,25.60
2017-09-24T13:09:42.636Z,25.40
2017-09-24T13:12:10.230Z,25.20
2017-09-24T13:14:38.460Z,25.50
2017-09-24T13:17:06.796Z,25.50
2017-09-24T13:19:34.338Z,25.40
2017-09-24T13:22:01.938Z,25.20
2017-09-24T13:24:29.524Z,25.00
2017-09-24T13:26:57.126Z,25.00
2017-09-24T13:29:24.705Z,25.10
2017-09-24T13:31:52.261Z,25.60
2017-09-24T13:34:20.934Z,25.60
2017-09-24T13:36:48.486Z,24.60
2017-09-24T13:39:16.066Z,24.10
2017-09-24T13:41:43.746Z,23.80
2017-09-24T13:44:11.298Z,23.60
2017-09-24T13:46:38.932Z,23.20
2017-09-24T13:49:06.510Z,23.20
2017-09-24T13:51:34.130Z,23.00
2017-09-24T13:54:01.749Z,23.00
2017-09-24T13:56:29.337Z,23.00
2017-09-24T13:58:57.725Z,23.00
2017-09-24T14:01:25.324Z,22.90
2017-09-24T14:03:52.956Z,22.80
2017-09-24T14:06:20.573Z,22.70
2017-09-24T14:08:48.123Z,22.80
2017-09-24T14:11:15.681Z,22.50
2017-09-24T14:13:43.269Z,22.30
2017-09-24T14:16:11.613Z,22.10
2017-09-24T14:18:39.167Z,22.10
2017-09-24T14:21:06.749Z,22.00
2017-09-24T14:23:34.314Z,21.60
2017-09-24T14:26:01.897Z,21.60
2017-09-24T14:28:30.233Z,21.50
2017-09-24T14:30:57.827Z,21.50
2017-09-24T14:33:26.208Z,21.50
2017-09-24T14:35:54.576Z,21.70
2017-09-24T14:38:23.938Z,21.70
2017-09-24T14:40:51.528Z,21.70
2017-09-24T14:43:23.312Z,21.70
2017-09-24T14:45:50.946Z,21.60
2017-09-24T14:48:18.568Z,21.50
2017-09-24T14:50:46.140Z,21.80
2017-09-24T14:53:13.735Z,21.80
2017-09-24T14:55:41.295Z,21.80
2017-09-24T14:58:08.880Z,21.60
2017-09-24T15:00:37.232Z,21.40
2017-09-24T15:03:04.788Z,21.30
2017-09-24T15:05:32.372Z,21.40
2017-09-24T15:07:59.941Z,21.40
2017-09-24T15:10:27.513Z,21.40
2017-09-24T15:12:55.936Z,21.00
2017-09-24T15:15:23.529Z,21.00
2017-09-24T15:17:52.282Z,20.90
2017-09-24T15:20:19.915Z,20.70
2017-09-24T15:22:47.495Z,20.70
2017-09-24T15:25:15.129Z,20.50
2017-09-24T15:27:43.446Z,20.50
2017-09-24T15:30:11.017Z,20.50
2017-09-24T15:32:38.587Z,20.40
2017-09-24T15:35:06.197Z,20.40
2017-09-24T15:37:34.537Z,20.20
2017-09-24T15:40:02.122Z,20.20
2017-09-24T15:42:30.490Z,20.00
2017-09-24T15:44:58.812Z,19.90
2017-09-24T15:47:26.418Z,19.90
2017-09-24T15:49:53.973Z,19.90
2017-09-24T15:52:21.579Z,19.90
2017-09-24T15:54:49.153Z,19.80
2017-09-24T15:57:21.372Z,19.80
2017-09-24T15:59:48.951Z,19.80
2017-09-24T16:02:17.287Z,19.70
2017-09-24T16:04:44.841Z,19.70
2017-09-24T16:07:12.410Z,19.80
2017-09-24T16:09:39.984Z,19.70
2017-09-24T16:12:07.582Z,19.80
2017-09-24T16:14:35.171Z,19.70
2017-09-24T16:17:02.741Z,19.70
2017-09-24T16:19:30.310Z,19.70
2017-09-24T16:21:57.905Z,19.60
2017-09-24T16:24:26.238Z,19.60
2017-09-24T16:26:53.815Z,19.50
2017-09-24T16:29:21.403Z,19.50
2017-09-24T16:31:49.748Z,19.40
2017-09-24T16:34:17.340Z,19.30
2017-09-24T16:36:45.729Z,19.20
2017-09-24T16:39:14.072Z,19.10
2017-09-24T16:41:41.664Z,19.10
2017-09-24T16:44:09.995Z,18.80
2017-09-24T16:46:37.576Z,18.80
2017-09-24T16:49:05.137Z,18.70
2017-09-24T16:51:32.710Z,18.50
2017-09-24T16:54:01.052Z,18.50
2017-09-24T16:56:28.641Z,18.50
2017-09-24T16:58:56.355Z,18.50
2017-09-24T17:01:23.947Z,18.50
2017-09-24T17:03:51.549Z,18.40
2017-09-24T17:06:19.872Z,18.40
2017-09-24T17:08:47.452Z,18.40
2017-09-24T17:11:15.053Z,18.40
2017-09-24T17:13:43.406Z,18.20
2017-09-24T17:16:10.977Z,18.20
2017-09-24T17:18:39.346Z,18.10
2017-09-24T17:21:06.956Z,18.10
2017-09-24T17:23:34.538Z,18.10
2017-09-24T17:26:02.096Z,18.00
2017-09-24T17:28:29.687Z,17.90
2017-09-24T17:30:57.265Z,17.80
2017-09-24T17:33:25.622Z,17.80
2017-09-24T17:35:53.202Z,17.80
2017-09-24T17:38:21.545Z,17.80
2017-09-24T17:40:49.113Z,17.80
2017-09-24T17:43:16.725Z,17.70
2017-09-24T17:45:44.317Z,17.70
2017-09-24T17:48:11.886Z,17.70
2017-09-24T17:50:39.500Z,17.70
2017-09-24T17:53:07.092Z,17.60
2017-09-24T17:55:34.676Z,17.60
2017-09-24T17:58:02.898Z,17.60
2017-09-24T18:00:30.506Z,17.60
2017-09-24T18:02:58.112Z,17.50
2017-09-24T18:05:26.456Z,17.50
2017-09-24T18:07:54.047Z,17.40
2017-09-24T18:10:22.376Z,17.40
2017-09-24T18:12:50.002Z,17.40
2017-09-24T18:15:17.582Z,17.40
2017-09-24T18:17:45.174Z,17.30
2017-09-24T18:20:12.756Z,17.30
2017-09-24T18:22:41.112Z,17.20
2017-09-24T18:25:08.672Z,17.10
2017-09-24T18:27:36.255Z,17.10
2017-09-24T18:30:04.594Z,17.00
2017-09-24T18:32:32.197Z,17.00
2017-09-24T18:35:00.510Z,17.00
2017-09-24T18:37:28.126Z,17.00
2017-09-24T18:39:56.482Z,16.90
2017-09-24T18:42:24.071Z,16.90
2017-09-24T18:44:52.466Z,16.80
2017-09-24T18:47:20.053Z,16.80
2017-09-24T18:49:47.663Z,16.80
2017-09-24T18:52:15.243Z,16.80
2017-09-24T18:54:43.597Z,16.70
2017-09-24T18:57:11.163Z,16.70
2017-09-24T18:59:38.757Z,16.70
2017-09-24T19:02:06.329Z,16.60
2017-09-24T19:04:33.938Z,16.60
2017-09-24T19:07:01.517Z,16.60
2017-09-24T19:09:29.859Z,16.50
2017-09-24T19:11:57.426Z,16.50
2017-09-24T19:14:25.023Z,16.40
2017-09-24T19:16:53.343Z,16.40
2017-09-24T19:19:20.972Z,16.40
2017-09-24T19:21:48.573Z,16.30
2017-09-24T19:24:16.144Z,16.30
2017-09-24T19:26:43.760Z,16.30
2017-09-24T19:29:11.329Z,16.20
2017-09-24T19:31:38.941Z,16.20
2017-09-24T19:34:07.292Z,16.10
2017-09-24T19:36:34.871Z,16.10
2017-09-24T19:39:02.454Z,16.10
2017-09-24T19:41:30.797Z,16.00
2017-09-24T19:43:58.460Z,16.00
2017-09-24T19:46:26.046Z,16.00
2017-09-24T19:48:54.377Z,16.00
2017-09-24T19:51:21.975Z,16.00
2017-09-24T19:53:49.559Z,15.90
2017-09-24T19:56:17.946Z,15.90
2017-09-24T19:58:45.565Z,15.90
2017-09-24T20:01:13.155Z,15.80
2017-09-24T20:03:40.784Z,15.80
2017-09-24T20:06:08.370Z,15.80
2017-09-24T20:08:36.706Z,15.70
2017-09-24T20:11:04.274Z,15.60
2017-09-24T20:13:31.869Z,15.60
2017-09-24T20:16:00.197Z,15.50
2017-09-24T20:18:27.780Z,15.50
2017-09-24T20:20:55.369Z,15.40
2017-09-24T20:23:23.775Z,15.30
2017-09-24T20:25:51.363Z,15.30
2017-09-24T20:28:18.946Z,15.20
2017-09-24T20:30:46.523Z,15.20
2017-09-24T20:33:14.112Z,15.20
2017-09-24T20:35:41.664Z,15.10
2017-09-24T20:38:09.263Z,15.00
2017-09-24T20:40:36.815Z,15.00
2017-09-24T20:43:04.387Z,14.90
2017-09-24T20:45:31.977Z,14.90
2017-09-24T20:47:59.538Z,14.90
2017-09-24T20:50:27.125Z,14.80
2017-09-24T20:52:54.721Z,14.80
2017-09-24T20:55:22.302Z,14.70
2017-09-24T20:57:49.870Z,14.70
2017-09-24T21:00:17.469Z,14.70
2017-09-24T21:02:45.790Z,14.60
2017-09-24T21:05:13.358Z,14.60
2017-09-24T21:07:40.937Z,14.50
2017-09-24T21:10:08.508Z,14.40
2017-09-24T21:12:36.095Z,14.40
2017-09-24T21:15:03.682Z,14.30
2017-09-24T21:17:31.251Z,14.30
2017-09-24T21:19:58.859Z,14.20
2017-09-24T21:22:26.429Z,14.20
2017-09-24T21:24:54.761Z,14.10
2017-09-24T21:27:22.348Z,14.10
2017-09-24T21:29:49.928Z,14.00
2017-09-24T21:32:18.263Z,14.00
2017-09-24T21:34:45.879Z,14.00
2017-09-24T21:37:13.424Z,14.00
2017-09-24T21:39:41.786Z,13.90
2017-09-24T21:42:09.352Z,13.80
2017-09-24T21:44:37.730Z,13.80
2017-09-24T21:47:05.288Z,13.80
2017-09-24T21:49:32.856Z,13.80
2017-09-24T21:52:00.429Z,13.70
2017-09-24T21:54:28.744Z,13.70
2017-09-24T21:56:56.326Z,13.60
2017-09-24T21:59:23.881Z,13.60
2017-09-24T22:01:51.466Z,13.60
2017-09-24T22:04:19.050Z,13.60
2017-09-24T22:06:47.373Z,13.50
2017-09-24T22:09:14.971Z,13.50
2017-09-24T22:11:43.315Z,13.40
2017-09-24T22:14:12.529Z,13.30
2017-09-24T22:16:40.093Z,13.30
2017-09-24T22:19:24.320Z,13.30
2017-09-24T22:22:08.797Z,13.20
2017-09-24T22:24:44.673Z,13.20
2017-09-24T22:27:12.233Z,13.20
2017-09-24T22:29:39.789Z,13.10
2017-09-24T22:32:07.390Z,13.10
2017-09-24T22:34:35.707Z,13.10
2017-09-24T22:37:03.288Z,13.00
2017-09-24T22:39:30.841Z,13.00
2017-09-24T22:41:58.402Z,13.00
2017-09-24T22:44:25.961Z,13.00
2017-09-24T22:46:53.567Z,13.00
2017-09-24T22:49:21.897Z,12.90
2017-09-24T22:51:49.478Z,12.90
2017-09-24T22:54:17.080Z,12.90
2017-09-24T22:56:45.423Z,12.80
2017-09-24T22:59:12.992Z,12.80
2017-09-24T23:01:40.535Z,12.80
2017-09-24T23:04:08.170Z,12.80
2017-09-24T23:06:35.739Z,12.80
2017-09-24T23:09:03.302Z,12.70
2017-09-24T23:11:30.886Z,12.70
2017-09-24T23:13:58.446Z,12.70
2017-09-24T23:16:26.036Z,12.70
2017-09-24T23:18:54.382Z,12.70
2017-09-24T23:21:21.981Z,12.60
2017-09-24T23:23:49.550Z,12.60
2017-09-24T23:26:17.165Z,12.60
2017-09-24T23:28:44.731Z,12.50
2017-09-24T23:31:12.319Z,12.60
2017-09-24T23:33:39.928Z,12.50
2017-09-24T23:36:07.486Z,12.40
2017-09-24T23:38:35.042Z,12.40
2017-09-24T23:41:02.602Z,12.40
2017-09-24T23:43:30.165Z,12.40
2017-09-24T23:45:57.746Z,12.40
2017-09-24T23:48:25.317Z,12.40
2017-09-24T23:50:52.904Z,12.30
2017-09-24T23:53:20.475Z,12.30
2017-09-24T23:55:48.054Z,12.30
2017-09-24T23:58:15.621Z,12.30
